sensor_id;sensor_type;location;lat;lon;timestamp;pressure;altitude;pressure_sealevel;temperature;humidity
60099;BME280;62818;49.394;8.686;2023-02-28T00:00:58;101340.34;;;0.64;62.42
60099;BME280;62818;49.394;8.686;2023-02-28T00:01:59;101337.19;;;0.59;62.91
60099;BME280;62818;49.394;8.686;2023-02-28T00:02:59;101342.31;;;0.60;62.93
60099;BME280;62818;49.394;8.686;2023-02-28T00:04:00;101336.91;;;0.63;62.57
60099;BME280;62818;49.394;8.686;2023-02-28T00:05:00;101332.56;;;0.78;62.30
60099;BME280;62818;49.394;8.686;2023-02-28T00:06:04;101343.03;;;1.06;61.45
60099;BME280;62818;49.394;8.686;2023-02-28T00:07:05;101335.56;;;0.86;62.62
60099;BME280;62818;49.394;8.686;2023-02-28T00:08:05;101333.88;;;0.85;61.80
60099;BME280;62818;49.394;8.686;2023-02-28T00:09:06;101330.47;;;0.55;62.55
60099;BME280;62818;49.394;8.686;2023-02-28T00:10:07;101333.34;;;0.50;63.39
60099;BME280;62818;49.394;8.686;2023-02-28T00:11:10;101340.19;;;0.67;62.96
60099;BME280;62818;49.394;8.686;2023-02-28T00:12:12;101332.34;;;1.25;62.75
60099;BME280;62818;49.394;8.686;2023-02-28T00:13:12;101336.13;;;0.77;62.06
60099;BME280;62818;49.394;8.686;2023-02-28T00:14:13;101333.28;;;0.66;62.08
60099;BME280;62818;49.394;8.686;2023-02-28T00:15:13;101332.56;;;0.78;62.27
60099;BME280;62818;49.394;8.686;2023-02-28T00:16:15;101335.91;;;0.80;62.32
60099;BME280;62818;49.394;8.686;2023-02-28T00:17:20;101332.72;;;0.75;62.09
60099;BME280;62818;49.394;8.686;2023-02-28T00:18:21;101335.69;;;0.99;61.78
60099;BME280;62818;49.394;8.686;2023-02-28T00:19:22;101331.06;;;0.74;62.61
60099;BME280;62818;49.394;8.686;2023-02-28T00:20:22;101336.16;;;1.05;61.91
60099;BME280;62818;49.394;8.686;2023-02-28T00:21:23;101332.84;;;0.73;62.41
60099;BME280;62818;49.394;8.686;2023-02-28T00:22:24;101322.00;;;0.65;62.48
60099;BME280;62818;49.394;8.686;2023-02-28T00:23:24;101335.91;;;0.80;62.20
60099;BME280;62818;49.394;8.686;2023-02-28T00:24:26;101334.53;;;0.89;62.08
60099;BME280;62818;49.394;8.686;2023-02-28T00:25:26;101337.94;;;1.19;62.71
60099;BME280;62818;49.394;8.686;2023-02-28T00:26:26;101332.25;;;1.40;61.47
60099;BME280;62818;49.394;8.686;2023-02-28T00:27:27;101331.66;;;0.93;61.58
60099;BME280;62818;49.394;8.686;2023-02-28T00:28:27;101327.59;;;0.59;62.82
60099;BME280;62818;49.394;8.686;2023-02-28T00:29:27;101336.28;;;0.74;63.01
60099;BME280;62818;49.394;8.686;2023-02-28T00:30:28;101330.00;;;0.92;63.07
60099;BME280;62818;49.394;8.686;2023-02-28T00:31:28;101334.81;;;0.84;61.95
60099;BME280;62818;49.394;8.686;2023-02-28T00:32:29;101334.44;;;0.76;62.54
60099;BME280;62818;49.394;8.686;2023-02-28T00:33:29;101337.06;;;1.04;61.95
60099;BME280;62818;49.394;8.686;2023-02-28T00:34:30;101337.19;;;0.73;62.15
60099;BME280;62818;49.394;8.686;2023-02-28T00:35:30;101344.59;;;0.51;63.50
60099;BME280;62818;49.394;8.686;2023-02-28T00:36:30;101331.97;;;0.59;63.58
60099;BME280;62818;49.394;8.686;2023-02-28T00:37:31;101321.91;;;0.53;63.83
60099;BME280;62818;49.394;8.686;2023-02-28T00:38:31;101333.88;;;0.85;63.89
60099;BME280;62818;49.394;8.686;2023-02-28T00:39:35;101326.75;;;0.59;63.41
60099;BME280;62818;49.394;8.686;2023-02-28T00:40:37;101326.59;;;0.46;63.57
60099;BME280;62818;49.394;8.686;2023-02-28T00:41:37;101328.25;;;0.63;63.46
60099;BME280;62818;49.394;8.686;2023-02-28T00:42:38;101332.50;;;0.50;63.65
60099;BME280;62818;49.394;8.686;2023-02-28T00:43:39;101332.13;;;0.56;63.87
60099;BME280;62818;49.394;8.686;2023-02-28T00:44:39;101337.19;;;0.59;63.18
60099;BME280;62818;49.394;8.686;2023-02-28T00:45:40;101322.06;;;0.50;64.45
60099;BME280;62818;49.394;8.686;2023-02-28T00:46:40;101333.72;;;0.88;63.35
60099;BME280;62818;49.394;8.686;2023-02-28T00:47:40;101329.44;;;0.57;63.60
60099;BME280;62818;49.394;8.686;2023-02-28T00:48:41;101334.56;;;0.59;63.44
60099;BME280;62818;49.394;8.686;2023-02-28T00:49:41;101323.47;;;0.55;63.63
60099;BME280;62818;49.394;8.686;2023-02-28T00:50:42;101328.78;;;0.54;63.66
60099;BME280;62818;49.394;8.686;2023-02-28T00:51:42;101330.81;;;0.49;64.02
60099;BME280;62818;49.394;8.686;2023-02-28T00:52:43;101324.59;;;0.36;64.44
60099;BME280;62818;49.394;8.686;2023-02-28T00:53:43;101331.31;;;0.40;64.82
60099;BME280;62818;49.394;8.686;2023-02-28T00:54:44;101333.25;;;0.52;64.58
60099;BME280;62818;49.394;8.686;2023-02-28T00:55:44;101328.94;;;0.51;64.40
60099;BME280;62818;49.394;8.686;2023-02-28T00:56:44;101333.28;;;0.66;63.55
60099;BME280;62818;49.394;8.686;2023-02-28T00:57:45;101332.72;;;0.61;64.57
60099;BME280;62818;49.394;8.686;2023-02-28T00:58:46;101340.34;;;0.34;64.47
60099;BME280;62818;49.394;8.686;2023-02-28T00:59:46;101342.94;;;0.64;65.27
60099;BME280;62818;49.394;8.686;2023-02-28T01:00:47;101338.97;;;0.43;64.68
60099;BME280;62818;49.394;8.686;2023-02-28T01:01:50;101330.41;;;0.41;64.70
60099;BME280;62818;49.394;8.686;2023-02-28T01:02:51;101331.06;;;0.44;65.04
60099;BME280;62818;49.394;8.686;2023-02-28T01:03:51;101334.97;;;0.37;65.18
60099;BME280;62818;49.394;8.686;2023-02-28T01:04:51;101337.44;;;0.54;65.42
60099;BME280;62818;49.394;8.686;2023-02-28T01:05:52;101337.72;;;0.64;64.66
60099;BME280;62818;49.394;8.686;2023-02-28T01:06:55;101335.56;;;0.86;64.31
60099;BME280;62818;49.394;8.686;2023-02-28T01:07:55;101326.75;;;0.59;64.50
60099;BME280;62818;49.394;8.686;2023-02-28T01:08:56;101324.66;;;0.50;64.57
60099;BME280;62818;49.394;8.686;2023-02-28T01:09:56;101326.81;;;0.28;65.44
60099;BME280;62818;49.394;8.686;2023-02-28T01:10:56;101327.00;;;0.54;65.79
60099;BME280;62818;49.394;8.686;2023-02-28T01:11:57;101334.63;;;0.57;64.81
60099;BME280;62818;49.394;8.686;2023-02-28T01:12:57;101332.50;;;0.64;65.16
60099;BME280;62818;49.394;8.686;2023-02-28T01:13:58;101328.41;;;0.60;64.78
60099;BME280;62818;49.394;8.686;2023-02-28T01:14:58;101331.00;;;0.46;65.21
60099;BME280;62818;49.394;8.686;2023-02-28T01:15:58;101328.09;;;0.21;65.68
60099;BME280;62818;49.394;8.686;2023-02-28T01:16:59;101326.28;;;0.66;66.30
60099;BME280;62818;49.394;8.686;2023-02-28T01:17:59;101322.66;;;0.69;65.06
60099;BME280;62818;49.394;8.686;2023-02-28T01:19:00;101330.19;;;0.30;65.84
60099;BME280;62818;49.394;8.686;2023-02-28T01:20:00;101325.06;;;0.58;66.11
60099;BME280;62818;49.394;8.686;2023-02-28T01:21:04;101326.44;;;0.49;65.29
60099;BME280;62818;49.394;8.686;2023-02-28T01:22:15;101325.69;;;0.18;66.37
60099;BME280;62818;49.394;8.686;2023-02-28T01:23:15;101328.69;;;0.26;66.37
60099;BME280;62818;49.394;8.686;2023-02-28T01:24:16;101327.72;;;0.72;66.28
60099;BME280;62818;49.394;8.686;2023-02-28T01:25:16;101322.91;;;0.50;65.50
60099;BME280;62818;49.394;8.686;2023-02-28T01:26:20;101328.38;;;0.46;65.93
60099;BME280;62818;49.394;8.686;2023-02-28T01:27:22;101329.66;;;0.39;66.81
60099;BME280;62818;49.394;8.686;2023-02-28T01:28:22;101323.16;;;0.46;66.02
60099;BME280;62818;49.394;8.686;2023-02-28T01:29:23;101334.41;;;0.17;66.53
60099;BME280;62818;49.394;8.686;2023-02-28T01:30:23;101327.44;;;0.17;67.09
60099;BME280;62818;49.394;8.686;2023-02-28T01:31:23;101330.31;;;0.13;67.76
60099;BME280;62818;49.394;8.686;2023-02-28T01:32:24;101330.75;;;0.64;67.23
60099;BME280;62818;49.394;8.686;2023-02-28T01:33:24;101326.09;;;0.40;67.08
60099;BME280;62818;49.394;8.686;2023-02-28T01:34:25;101326.66;;;0.31;67.22
60099;BME280;62818;49.394;8.686;2023-02-28T01:35:25;101327.94;;;0.24;67.36
60099;BME280;62818;49.394;8.686;2023-02-28T01:36:26;101323.34;;;-0.03;67.96
60099;BME280;62818;49.394;8.686;2023-02-28T01:37:26;101331.22;;;0.12;68.94
60099;BME280;62818;49.394;8.686;2023-02-28T01:38:27;101322.28;;;0.16;67.82
60099;BME280;62818;49.394;8.686;2023-02-28T01:39:27;101327.50;;;0.16;68.39
60099;BME280;62818;49.394;8.686;2023-02-28T01:40:28;101326.03;;;0.41;68.55
60099;BME280;62818;49.394;8.686;2023-02-28T01:41:29;101324.59;;;0.06;68.82
60099;BME280;62818;49.394;8.686;2023-02-28T01:42:31;101325.31;;;0.53;68.26
60099;BME280;62818;49.394;8.686;2023-02-28T01:46:01;101317.63;;;0.07;69.07
60099;BME280;62818;49.394;8.686;2023-02-28T01:47:02;101318.59;;;0.20;68.85
60099;BME280;62818;49.394;8.686;2023-02-28T01:48:03;101318.91;;;0.29;68.21
60099;BME280;62818;49.394;8.686;2023-02-28T01:49:14;101325.00;;;0.14;68.51
60099;BME280;62818;49.394;8.686;2023-02-28T01:50:19;101326.66;;;0.31;68.13
60099;BME280;62818;49.394;8.686;2023-02-28T01:52:46;101320.72;;;0.43;67.67
60099;BME280;62818;49.394;8.686;2023-02-28T01:53:49;101323.72;;;0.21;68.56
60099;BME280;62818;49.394;8.686;2023-02-28T01:54:55;101320.72;;;0.13;68.56
60099;BME280;62818;49.394;8.686;2023-02-28T01:55:59;101317.97;;;0.60;67.75
60099;BME280;62818;49.394;8.686;2023-02-28T01:57:10;101315.34;;;0.46;67.42
60099;BME280;62818;49.394;8.686;2023-02-28T01:58:15;101316.69;;;0.53;66.57
60099;BME280;62818;49.394;8.686;2023-02-28T01:59:19;101306.34;;;0.36;67.64
60099;BME280;62818;49.394;8.686;2023-02-28T02:00:25;101315.81;;;0.07;68.73
60099;BME280;62818;49.394;8.686;2023-02-28T02:01:27;101309.22;;;0.02;69.29
60099;BME280;62818;49.394;8.686;2023-02-28T02:02:29;101310.38;;;-0.04;69.38
60099;BME280;62818;49.394;8.686;2023-02-28T02:03:29;101316.66;;;0.08;68.95
60099;BME280;62818;49.394;8.686;2023-02-28T02:04:32;101305.59;;;0.04;69.04
60099;BME280;62818;49.394;8.686;2023-02-28T02:05:39;101308.09;;;0.06;69.47
60099;BME280;62818;49.394;8.686;2023-02-28T02:06:42;101315.41;;;0.15;69.14
60099;BME280;62818;49.394;8.686;2023-02-28T02:07:46;101310.56;;;0.09;69.87
60099;BME280;62818;49.394;8.686;2023-02-28T02:08:50;101304.50;;;-0.08;69.40
60099;BME280;62818;49.394;8.686;2023-02-28T02:10:05;101307.88;;;-0.06;69.73
60099;BME280;62818;49.394;8.686;2023-02-28T02:11:07;101312.81;;;0.15;68.94
60099;BME280;62818;49.394;8.686;2023-02-28T02:12:34;101309.25;;;0.16;69.06
60099;BME280;62818;49.394;8.686;2023-02-28T02:13:52;101311.81;;;0.02;69.71
60099;BME280;62818;49.394;8.686;2023-02-28T02:17:39;101305.47;;;0.21;69.19
60099;BME280;62818;49.394;8.686;2023-02-28T02:23:33;101304.22;;;0.13;68.60
60099;BME280;62818;49.394;8.686;2023-02-28T02:28:53;101302.31;;;0.60;68.46
60099;BME280;62818;49.394;8.686;2023-02-28T02:31:22;101304.47;;;0.24;68.02
60099;BME280;62818;49.394;8.686;2023-02-28T02:32:31;101292.56;;;0.04;69.27
60099;BME280;62818;49.394;8.686;2023-02-28T02:36:58;101295.97;;;0.20;69.73
60099;BME280;62818;49.394;8.686;2023-02-28T02:40:58;101300.88;;;0.11;69.63
60099;BME280;62818;49.394;8.686;2023-02-28T02:42:27;101299.44;;;-0.11;70.03
60099;BME280;62818;49.394;8.686;2023-02-28T02:43:48;101296.94;;;0.04;69.85
60099;BME280;62818;49.394;8.686;2023-02-28T02:45:00;101302.25;;;0.02;69.54
60099;BME280;62818;49.394;8.686;2023-02-28T02:46:11;101290.13;;;-0.15;69.58
60099;BME280;62818;49.394;8.686;2023-02-28T02:47:18;101294.25;;;-0.11;70.42
60099;BME280;62818;49.394;8.686;2023-02-28T02:48:24;101296.94;;;0.04;69.96
60099;BME280;62818;49.394;8.686;2023-02-28T02:49:30;101298.09;;;-0.18;70.20
60099;BME280;62818;49.394;8.686;2023-02-28T02:50:39;101297.78;;;-0.27;70.74
60099;BME280;62818;49.394;8.686;2023-02-28T02:51:44;101292.56;;;-0.12;70.39
60099;BME280;62818;49.394;8.686;2023-02-28T02:52:48;101293.91;;;-0.05;70.83
60099;BME280;62818;49.394;8.686;2023-02-28T02:53:55;101303.16;;;-0.15;70.26
60099;BME280;62818;49.394;8.686;2023-02-28T02:55:02;101292.44;;;0.21;70.17
60099;BME280;62818;49.394;8.686;2023-02-28T02:56:06;101294.44;;;-0.14;70.51
60099;BME280;62818;49.394;8.686;2023-02-28T02:57:09;101298.53;;;0.36;69.93
60099;BME280;62818;49.394;8.686;2023-02-28T02:58:14;101301.13;;;0.06;69.30
60099;BME280;62818;49.394;8.686;2023-02-28T02:59:20;101294.66;;;-0.03;70.34
60099;BME280;62818;49.394;8.686;2023-02-28T03:00:23;101288.78;;;-0.22;70.79
60099;BME280;62818;49.394;8.686;2023-02-28T03:01:30;101296.09;;;-0.13;71.70
60099;BME280;62818;49.394;8.686;2023-02-28T03:02:32;101291.59;;;-0.25;70.85
60099;BME280;62818;49.394;8.686;2023-02-28T03:03:34;101290.06;;;-0.29;71.55
60099;BME280;62818;49.394;8.686;2023-02-28T03:04:38;101293.59;;;-0.30;71.47
60099;BME280;62818;49.394;8.686;2023-02-28T03:05:49;101291.22;;;-0.34;71.57
60099;BME280;62818;49.394;8.686;2023-02-28T03:06:51;101283.50;;;-0.36;71.95
60099;BME280;62818;49.394;8.686;2023-02-28T03:07:55;101290.38;;;-0.19;72.36
60099;BME280;62818;49.394;8.686;2023-02-28T03:08:55;101288.66;;;0.11;72.56
60099;BME280;62818;49.394;8.686;2023-02-28T03:09:56;101287.19;;;-0.24;71.54
60099;BME280;62818;49.394;8.686;2023-02-28T03:10:58;101287.53;;;-0.15;71.80
60099;BME280;62818;49.394;8.686;2023-02-28T03:12:01;101289.38;;;-0.17;72.45
60099;BME280;62818;49.394;8.686;2023-02-28T03:14:35;101291.44;;;0.24;71.52
60099;BME280;62818;49.394;8.686;2023-02-28T03:15:52;101287.94;;;-0.07;71.42
60099;BME280;62818;49.394;8.686;2023-02-28T03:19:03;101282.78;;;0.08;70.68
60099;BME280;62818;49.394;8.686;2023-02-28T03:20:33;101291.38;;;-0.06;70.75
60099;BME280;62818;49.394;8.686;2023-02-28T03:23:03;101287.69;;;-0.18;70.81
60099;BME280;62818;49.394;8.686;2023-02-28T03:24:18;101288.03;;;-0.24;71.53
60099;BME280;62818;49.394;8.686;2023-02-28T03:26:42;101290.22;;;-0.01;70.95
60099;BME280;62818;49.394;8.686;2023-02-28T03:28:57;101283.44;;;0.11;70.34
60099;BME280;62818;49.394;8.686;2023-02-28T03:30:10;101279.56;;;0.18;70.01
60099;BME280;62818;49.394;8.686;2023-02-28T03:31:22;101286.03;;;-0.34;71.52
60099;BME280;62818;49.394;8.686;2023-02-28T03:32:33;101283.81;;;-0.42;71.97
60099;BME280;62818;49.394;8.686;2023-02-28T03:33:39;101286.19;;;-0.37;72.67
60099;BME280;62818;49.394;8.686;2023-02-28T03:34:46;101279.28;;;0.09;71.19
60099;BME280;62818;49.394;8.686;2023-02-28T03:35:58;101289.13;;;-0.12;71.62
60099;BME280;62818;49.394;8.686;2023-02-28T03:37:04;101290.88;;;-0.13;71.23
60099;BME280;62818;49.394;8.686;2023-02-28T03:38:22;101289.97;;;0.34;70.40
60099;BME280;62818;49.394;8.686;2023-02-28T03:39:39;101288.53;;;-0.02;70.93
60099;BME280;62818;49.394;8.686;2023-02-28T03:40:46;101282.31;;;0.01;71.03
60099;BME280;62818;49.394;8.686;2023-02-28T03:41:52;101286.91;;;0.12;71.25
60099;BME280;62818;49.394;8.686;2023-02-28T03:42:59;101287.19;;;-0.09;70.89
60099;BME280;62818;49.394;8.686;2023-02-28T03:44:12;101289.72;;;-0.23;71.91
60099;BME280;62818;49.394;8.686;2023-02-28T03:45:36;101285.50;;;0.36;70.62
60099;BME280;62818;49.394;8.686;2023-02-28T03:46:39;101289.19;;;0.18;71.31
60099;BME280;62818;49.394;8.686;2023-02-28T03:47:49;101285.06;;;0.43;70.17
60099;BME280;62818;49.394;8.686;2023-02-28T03:49:05;101293.69;;;0.30;70.54
60099;BME280;62818;49.394;8.686;2023-02-28T03:51:14;101292.09;;;0.12;71.61
60099;BME280;62818;49.394;8.686;2023-02-28T03:52:17;101293.22;;;0.08;70.59
60099;BME280;62818;49.394;8.686;2023-02-28T03:54:27;101300.13;;;0.09;70.82
60099;BME280;62818;49.394;8.686;2023-02-28T03:55:37;101290.16;;;0.31;71.02
60099;BME280;62818;49.394;8.686;2023-02-28T03:57:03;101299.28;;;0.38;70.79
60099;BME280;62818;49.394;8.686;2023-02-28T03:58:10;101299.63;;;0.02;70.40
60099;BME280;62818;49.394;8.686;2023-02-28T03:59:22;101300.19;;;-0.09;71.19
60099;BME280;62818;49.394;8.686;2023-02-28T04:00:30;101295.69;;;0.25;71.59
60099;BME280;62818;49.394;8.686;2023-02-28T04:01:37;101291.84;;;0.16;71.28
60099;BME280;62818;49.394;8.686;2023-02-28T04:02:41;101299.03;;;-0.03;71.90
60099;BME280;62818;49.394;8.686;2023-02-28T04:03:41;101297.63;;;-0.40;72.05
60099;BME280;62818;49.394;8.686;2023-02-28T04:04:42;101299.28;;;-0.08;72.46
60099;BME280;62818;49.394;8.686;2023-02-28T04:05:52;101297.59;;;-0.09;72.22
60099;BME280;62818;49.394;8.686;2023-02-28T04:07:00;101292.81;;;-0.01;71.54
60099;BME280;62818;49.394;8.686;2023-02-28T04:08:03;101297.69;;;-0.26;72.24
60099;BME280;62818;49.394;8.686;2023-02-28T04:09:08;101291.78;;;0.18;71.57
60099;BME280;62818;49.394;8.686;2023-02-28T04:10:12;101289.34;;;0.15;70.54
60099;BME280;62818;49.394;8.686;2023-02-28T04:11:16;101294.31;;;0.04;70.95
60099;BME280;62818;49.394;8.686;2023-02-28T04:12:18;101291.66;;;0.35;70.68
60099;BME280;62818;49.394;8.686;2023-02-28T04:13:19;101288.34;;;0.17;70.90
60099;BME280;62818;49.394;8.686;2023-02-28T04:14:19;101289.53;;;-0.04;71.53
60099;BME280;62818;49.394;8.686;2023-02-28T04:15:19;101289.22;;;0.02;71.59
60099;BME280;62818;49.394;8.686;2023-02-28T04:16:22;101290.34;;;0.12;71.10
60099;BME280;62818;49.394;8.686;2023-02-28T04:17:23;101291.97;;;-0.17;71.09
60099;BME280;62818;49.394;8.686;2023-02-28T04:18:23;101291.22;;;-0.19;72.14
60099;BME280;62818;49.394;8.686;2023-02-28T04:19:23;101288.72;;;-0.05;72.19
60099;BME280;62818;49.394;8.686;2023-02-28T04:20:24;101286.03;;;-0.19;71.98
60099;BME280;62818;49.394;8.686;2023-02-28T04:21:24;101287.63;;;-0.32;72.55
60099;BME280;62818;49.394;8.686;2023-02-28T04:22:24;101289.47;;;-0.49;73.30
60099;BME280;62818;49.394;8.686;2023-02-28T04:23:26;101283.81;;;-0.26;73.01
60099;BME280;62818;49.394;8.686;2023-02-28T04:24:27;101290.81;;;-0.42;73.03
60099;BME280;62818;49.394;8.686;2023-02-28T04:25:28;101277.09;;;-0.61;74.01
60099;BME280;62818;49.394;8.686;2023-02-28T04:26:31;101288.03;;;-0.55;74.20
60099;BME280;62818;49.394;8.686;2023-02-28T04:27:33;101281.16;;;-0.40;73.83
60099;BME280;62818;49.394;8.686;2023-02-28T04:28:33;101289.03;;;-0.11;73.40
60099;BME280;62818;49.394;8.686;2023-02-28T04:29:34;101291.47;;;-0.08;73.21
60099;BME280;62818;49.394;8.686;2023-02-28T04:30:34;101289.78;;;-0.09;72.80
60099;BME280;62818;49.394;8.686;2023-02-28T04:31:35;101290.13;;;0.01;72.88
60099;BME280;62818;49.394;8.686;2023-02-28T04:32:35;101280.97;;;-0.22;72.86
60099;BME280;62818;49.394;8.686;2023-02-28T04:33:35;101287.28;;;-0.41;73.57
60099;BME280;62818;49.394;8.686;2023-02-28T04:34:36;101286.34;;;-0.56;73.71
60099;BME280;62818;49.394;8.686;2023-02-28T04:35:36;101282.31;;;-0.15;73.20
60099;BME280;62818;49.394;8.686;2023-02-28T04:36:37;101285.78;;;-0.30;73.44
60099;BME280;62818;49.394;8.686;2023-02-28T04:37:37;101283.25;;;-0.62;73.99
60099;BME280;62818;49.394;8.686;2023-02-28T04:38:38;101287.25;;;-0.73;74.57
60099;BME280;62818;49.394;8.686;2023-02-28T04:39:39;101287.44;;;-0.60;74.16
60099;BME280;62818;49.394;8.686;2023-02-28T04:40:40;101279.63;;;-0.60;74.22
60099;BME280;62818;49.394;8.686;2023-02-28T04:41:40;101286.63;;;-0.45;74.28
60099;BME280;62818;49.394;8.686;2023-02-28T04:42:40;101292.59;;;-0.27;74.00
60099;BME280;62818;49.394;8.686;2023-02-28T04:43:41;101287.38;;;-0.27;74.05
60099;BME280;62818;49.394;8.686;2023-02-28T04:44:41;101275.50;;;-0.33;73.45
60099;BME280;62818;49.394;8.686;2023-02-28T04:45:42;101281.66;;;-0.65;74.22
60099;BME280;62818;49.394;8.686;2023-02-28T04:46:42;101278.47;;;-0.39;74.71
60099;BME280;62818;49.394;8.686;2023-02-28T04:47:43;101289.13;;;-0.59;74.19
60099;BME280;62818;49.394;8.686;2023-02-28T04:48:44;101284.66;;;-0.57;74.58
60099;BME280;62818;49.394;8.686;2023-02-28T04:49:44;101287.22;;;-0.55;74.27
60099;BME280;62818;49.394;8.686;2023-02-28T04:50:45;101284.56;;;-0.09;74.11
60099;BME280;62818;49.394;8.686;2023-02-28T04:51:45;101292.69;;;-0.29;73.18
60099;BME280;62818;49.394;8.686;2023-02-28T04:52:45;101286.84;;;-0.03;72.94
60099;BME280;62818;49.394;8.686;2023-02-28T04:53:46;101281.72;;;-0.04;72.69
60099;BME280;62818;49.394;8.686;2023-02-28T04:54:46;101290.47;;;-0.05;73.47
60099;BME280;62818;49.394;8.686;2023-02-28T04:55:47;101284.53;;;-0.23;72.81
60099;BME280;62818;49.394;8.686;2023-02-28T04:56:47;101285.84;;;-0.62;73.67
60099;BME280;62818;49.394;8.686;2023-02-28T04:57:49;101294.59;;;-0.48;73.67
60099;BME280;62818;49.394;8.686;2023-02-28T04:58:50;101290.22;;;-0.47;73.94
60099;BME280;62818;49.394;8.686;2023-02-28T04:59:52;101293.84;;;-0.19;73.95
60099;BME280;62818;49.394;8.686;2023-02-28T05:00:53;101294.59;;;-0.32;73.05
60099;BME280;62818;49.394;8.686;2023-02-28T05:01:54;101295.34;;;-0.46;73.56
60099;BME280;62818;49.394;8.686;2023-02-28T05:02:54;101296.53;;;-0.36;73.63
60099;BME280;62818;49.394;8.686;2023-02-28T05:03:55;101297.63;;;-0.55;73.81
60099;BME280;62818;49.394;8.686;2023-02-28T05:04:57;101293.09;;;-0.21;73.14
60099;BME280;62818;49.394;8.686;2023-02-28T05:05:58;101299.81;;;-0.17;72.62
60099;BME280;62818;49.394;8.686;2023-02-28T05:06:58;101300.50;;;-0.29;72.65
60099;BME280;62818;49.394;8.686;2023-02-28T05:07:58;101299.47;;;-0.26;72.57
60099;BME280;62818;49.394;8.686;2023-02-28T05:08:59;101297.94;;;-0.46;73.09
60099;BME280;62818;49.394;8.686;2023-02-28T05:09:59;101295.69;;;-0.21;72.86
60099;BME280;62818;49.394;8.686;2023-02-28T05:11:00;101296.09;;;-0.28;72.50
60099;BME280;62818;49.394;8.686;2023-02-28T05:12:01;101302.50;;;-0.03;72.35
60099;BME280;62818;49.394;8.686;2023-02-28T05:13:02;101303.84;;;-0.27;72.83
60099;BME280;62818;49.394;8.686;2023-02-28T05:14:06;101300.78;;;-0.04;72.68
60099;BME280;62818;49.394;8.686;2023-02-28T05:15:12;101300.91;;;-0.21;72.64
60099;BME280;62818;49.394;8.686;2023-02-28T05:16:13;101307.28;;;-0.11;72.28
60099;BME280;62818;49.394;8.686;2023-02-28T05:17:14;101314.19;;;-0.10;71.97
60099;BME280;62818;49.394;8.686;2023-02-28T05:18:14;101306.50;;;-0.13;72.07
60099;BME280;62818;49.394;8.686;2023-02-28T05:19:15;101304.09;;;-0.16;71.82
60099;BME280;62818;49.394;8.686;2023-02-28T05:20:15;101306.97;;;-0.20;71.75
60099;BME280;62818;49.394;8.686;2023-02-28T05:22:27;101302.50;;;-0.03;71.76
60099;BME280;62818;49.394;8.686;2023-02-28T05:23:28;101300.50;;;-0.29;72.38
60099;BME280;62818;49.394;8.686;2023-02-28T05:24:28;101301.91;;;-0.08;71.79
60099;BME280;62818;49.394;8.686;2023-02-28T05:25:28;101306.19;;;-0.22;72.22
60099;BME280;62818;49.394;8.686;2023-02-28T05:26:29;101306.75;;;-0.02;72.05
60099;BME280;62818;49.394;8.686;2023-02-28T05:27:30;101310.72;;;-0.10;71.93
60099;BME280;62818;49.394;8.686;2023-02-28T05:28:30;101300.81;;;-0.19;71.54
60099;BME280;62818;49.394;8.686;2023-02-28T05:29:31;101311.31;;;-0.21;71.49
60099;BME280;62818;49.394;8.686;2023-02-28T05:30:31;101308.53;;;-0.18;72.03
60099;BME280;62818;49.394;8.686;2023-02-28T05:31:31;101306.88;;;-0.19;72.38
60099;BME280;62818;49.394;8.686;2023-02-28T05:32:32;101307.22;;;-0.09;72.17
60099;BME280;62818;49.394;8.686;2023-02-28T05:33:32;101307.78;;;-0.04;71.61
60099;BME280;62818;49.394;8.686;2023-02-28T05:34:33;101305.34;;;-0.23;71.78
60099;BME280;62818;49.394;8.686;2023-02-28T05:35:33;101305.84;;;-0.32;72.52
60099;BME280;62818;49.394;8.686;2023-02-28T05:36:33;101302.84;;;-0.40;72.34
60099;BME280;62818;49.394;8.686;2023-02-28T05:37:36;101306.47;;;0.19;71.50
60099;BME280;62818;49.394;8.686;2023-02-28T05:38:37;101305.25;;;-0.06;71.89
60099;BME280;62818;49.394;8.686;2023-02-28T05:39:38;101315.34;;;-0.15;72.08
60099;BME280;62818;49.394;8.686;2023-02-28T05:40:39;101303.13;;;0.17;71.79
60099;BME280;62818;49.394;8.686;2023-02-28T05:41:40;101305.41;;;-0.09;72.05
60099;BME280;62818;49.394;8.686;2023-02-28T05:42:42;101314.22;;;0.20;71.57
60099;BME280;62818;49.394;8.686;2023-02-28T05:43:43;101310.34;;;0.12;72.04
60099;BME280;62818;49.394;8.686;2023-02-28T05:44:43;101308.47;;;-0.01;71.16
60099;BME280;62818;49.394;8.686;2023-02-28T05:45:43;101311.38;;;-0.07;72.00
60099;BME280;62818;49.394;8.686;2023-02-28T05:46:44;101308.72;;;-0.21;71.75
60099;BME280;62818;49.394;8.686;2023-02-28T05:47:44;101305.00;;;-0.32;71.93
60099;BME280;62818;49.394;8.686;2023-02-28T05:48:46;101315.59;;;-0.20;71.59
60099;BME280;62818;49.394;8.686;2023-02-28T05:49:47;101314.28;;;-0.27;71.63
60099;BME280;62818;49.394;8.686;2023-02-28T05:50:48;101310.81;;;-0.27;71.54
60099;BME280;62818;49.394;8.686;2023-02-28T05:51:48;101323.84;;;-0.12;72.28
60099;BME280;62818;49.394;8.686;2023-02-28T05:52:49;101311.91;;;-0.16;71.44
60099;BME280;62818;49.394;8.686;2023-02-28T05:53:50;101317.28;;;-0.19;71.53
60099;BME280;62818;49.394;8.686;2023-02-28T05:54:50;101319.44;;;0.05;70.70
60099;BME280;62818;49.394;8.686;2023-02-28T05:55:50;101312.72;;;-0.15;70.74
60099;BME280;62818;49.394;8.686;2023-02-28T05:56:51;101307.88;;;-0.21;71.15
60099;BME280;62818;49.394;8.686;2023-02-28T05:57:51;101307.97;;;0.68;77.17
60099;BME280;62818;49.394;8.686;2023-02-28T05:58:51;101311.66;;;-0.11;72.04
60099;BME280;62818;49.394;8.686;2023-02-28T05:59:52;101311.13;;;-0.18;71.75
60099;BME280;62818;49.394;8.686;2023-02-28T06:00:52;101315.00;;;0.07;71.79
60099;BME280;62818;49.394;8.686;2023-02-28T06:01:53;101309.56;;;-0.05;71.40
60099;BME280;62818;49.394;8.686;2023-02-28T06:02:53;101304.66;;;-0.11;71.19
60099;BME280;62818;49.394;8.686;2023-02-28T06:03:56;101313.25;;;-0.40;72.33
60099;BME280;62818;49.394;8.686;2023-02-28T06:04:56;101307.72;;;-0.34;71.94
60099;BME280;62818;49.394;8.686;2023-02-28T06:05:56;101306.50;;;-0.44;72.11